Time;durP1;ratioP1;P1;durP2;ratioP2;P2;SDS_P1;SDS_P2;PMS_P1;PMS_P2;Temp;Humidity;BMP_temperature;BMP_pressure;BME280_temperature;BME280_humidity;BME280_pressure;Samples;Min_cycle;Max_cycle;Signal;HPM_P1;HPM_P2
2022/03/20 00:02:20;;;;;;;75.70;37.57;;;4.30;63.90;;;;;;5056067;28;20233;-70
2022/03/20 00:05:09;;;;;;;75.83;38.33;;;4.30;63.90;;;;;;5060821;28;20305;-70
2022/03/20 00:07:58;;;;;;;74.20;37.67;;;4.40;63.70;;;;;;5066367;28;20220;-70
2022/03/20 00:10:49;;;;;;;81.90;39.07;;;4.40;64.20;;;;;;5069420;28;20215;-68
2022/03/20 00:13:38;;;;;;;76.17;38.37;;;4.40;63.80;;;;;;5054548;28;20227;-68
2022/03/20 00:16:29;;;;;;;71.13;37.53;;;4.20;64.00;;;;;;5058156;28;21713;-66
2022/03/20 00:19:20;;;;;;;73.60;35.70;;;4.20;64.20;;;;;;5074358;28;20244;-66
2022/03/20 00:22:11;;;;;;;76.13;36.87;;;3.90;64.20;;;;;;5059927;28;20745;-67
2022/03/20 00:24:59;;;;;;;69.93;35.43;;;3.90;64.40;;;;;;5072988;28;20228;-66
2022/03/20 00:27:48;;;;;;;68.50;34.87;;;4.00;64.20;;;;;;5059235;28;20222;-66
2022/03/20 00:30:37;;;;;;;75.40;34.77;;;4.00;64.10;;;;;;5057375;28;20240;-67
2022/03/20 00:33:26;;;;;;;66.27;34.00;;;4.00;64.00;;;;;;5056555;28;20224;-67
2022/03/20 00:36:16;;;;;;;68.10;34.60;;;4.00;63.60;;;;;;5056409;28;20221;-70
2022/03/20 00:39:09;;;;;;;64.40;33.00;;;3.90;63.60;;;;;;5054368;28;20231;-70
2022/03/20 00:41:57;;;;;;;59.67;32.83;;;3.80;63.90;;;;;;5068292;28;20216;-70
2022/03/20 00:44:46;;;;;;;71.43;34.90;;;3.80;64.00;;;;;;5057695;28;20713;-69
2022/03/20 00:47:35;;;;;;;73.90;34.40;;;3.70;64.00;;;;;;5075051;28;20215;-69
2022/03/20 00:50:25;;;;;;;70.13;33.70;;;3.70;64.10;;;;;;5068784;28;20226;-69
2022/03/20 00:53:16;;;;;;;73.00;34.17;;;3.70;64.00;;;;;;5080233;28;20674;-69
2022/03/20 00:56:05;;;;;;;67.73;34.83;;;3.80;64.00;;;;;;5077349;28;20228;-70
2022/03/20 00:58:54;;;;;;;66.77;33.50;;;3.80;64.20;;;;;;5075304;28;20231;-70
2022/03/20 01:01:44;;;;;;;70.07;34.10;;;3.70;64.30;;;;;;5062887;28;20231;-69
2022/03/20 01:04:33;;;;;;;66.37;33.10;;;3.70;64.60;;;;;;5073460;28;20318;-69
2022/03/20 01:07:22;;;;;;;68.53;34.83;;;3.60;64.60;;;;;;5067675;28;20223;-70
2022/03/20 01:10:13;;;;;;;67.97;34.77;;;3.60;64.90;;;;;;5042609;28;20220;-70
2022/03/20 01:13:02;;;;;;;72.23;36.10;;;3.60;65.00;;;;;;5047220;28;20216;-69
2022/03/20 01:15:51;;;;;;;63.63;32.60;;;3.50;65.10;;;;;;5074523;28;20568;-70
2022/03/20 01:18:40;;;;;;;65.93;33.80;;;3.50;65.30;;;;;;5056980;28;20791;-70
2022/03/20 01:21:30;;;;;;;69.23;34.67;;;3.40;65.30;;;;;;5058640;28;20967;-70
2022/03/20 01:24:19;;;;;;;68.17;34.37;;;3.30;65.40;;;;;;5072157;28;20373;-73
2022/03/20 01:27:09;;;;;;;71.53;34.57;;;3.30;65.80;;;;;;5072918;28;20212;-73
2022/03/20 01:29:58;;;;;;;73.47;34.20;;;3.30;66.90;;;;;;5077756;28;20226;-73
2022/03/20 01:32:47;;;;;;;69.67;35.90;;;3.40;66.00;;;;;;5063338;28;20317;-72
2022/03/20 01:35:35;;;;;;;70.87;34.73;;;3.50;66.10;;;;;;5062394;28;20342;-74
2022/03/20 01:38:25;;;;;;;71.70;34.90;;;3.40;66.10;;;;;;5080905;28;20803;-72
2022/03/20 01:41:13;;;;;;;69.73;35.13;;;3.30;66.30;;;;;;5072311;28;20779;-67
2022/03/20 01:44:07;;;;;;;81.53;36.97;;;3.50;66.30;;;;;;5076920;28;20230;-69
2022/03/20 01:46:56;;;;;;;73.00;34.47;;;3.40;66.30;;;;;;5072466;28;20229;-70
2022/03/20 01:49:47;;;;;;;68.47;34.23;;;3.30;66.20;;;;;;5048042;28;20223;-69
2022/03/20 01:52:36;;;;;;;77.63;34.23;;;3.20;66.00;;;;;;5078723;28;20224;-68
2022/03/20 01:55:25;;;;;;;69.40;34.43;;;3.00;66.00;;;;;;5076516;28;20712;-68
2022/03/20 01:58:16;;;;;;;70.83;34.70;;;2.80;66.10;;;;;;5078721;28;20224;-70
2022/03/20 02:01:09;;;;;;;72.27;33.70;;;3.00;66.40;;;;;;5078131;28;20586;-70
2022/03/20 02:03:59;;;;;;;68.73;34.00;;;2.90;66.50;;;;;;5076999;28;20590;-70
2022/03/20 02:06:48;;;;;;;69.53;33.43;;;2.90;66.60;;;;;;5040929;28;20230;-69
2022/03/20 02:09:38;;;;;;;67.07;33.57;;;2.80;66.60;;;;;;5044917;28;23091;-69
2022/03/20 02:12:28;;;;;;;68.03;32.50;;;2.80;66.50;;;;;;5073229;28;20231;-69
2022/03/20 02:15:17;;;;;;;64.30;31.60;;;2.70;66.30;;;;;;5070807;28;20215;-68
2022/03/20 02:18:10;;;;;;;61.13;30.90;;;2.70;66.30;;;;;;5055257;28;20223;-67
2022/03/20 02:21:03;;;;;;;60.00;31.20;;;2.80;66.50;;;;;;5074069;28;20212;-69
2022/03/20 02:23:56;;;;;;;66.07;32.00;;;2.90;66.30;;;;;;5057963;28;20216;-68
2022/03/20 02:26:45;;;;;;;63.07;31.50;;;2.90;66.30;;;;;;5056508;28;20220;-69
2022/03/20 02:29:34;;;;;;;60.63;31.57;;;2.90;66.40;;;;;;5056542;28;20510;-68
2022/03/20 02:32:28;;;;;;;66.47;31.30;;;2.90;66.30;;;;;;5071515;28;20731;-69
2022/03/20 02:35:18;;;;;;;59.40;31.17;;;2.80;66.50;;;;;;5059258;28;20216;-69
2022/03/20 02:38:10;;;;;;;61.60;30.83;;;2.90;66.50;;;;;;5054877;28;20223;-68
2022/03/20 02:41:00;;;;;;;69.00;32.57;;;2.80;66.50;;;;;;5055576;28;20287;-68
2022/03/20 02:43:50;;;;;;;61.80;30.83;;;2.90;66.50;;;;;;5063294;28;20246;-69
2022/03/20 02:46:39;;;;;;;61.47;29.53;;;3.00;66.00;;;;;;5056164;28;20224;-67
2022/03/20 02:49:28;;;;;;;62.23;29.63;;;3.10;65.50;;;;;;5071084;28;20291;-68
2022/03/20 02:52:20;;;;;;;62.03;30.03;;;3.00;65.30;;;;;;5062997;28;20224;-68
2022/03/20 02:55:11;;;;;;;66.37;31.83;;;3.10;65.50;;;;;;5058891;28;20327;-70
2022/03/20 02:58:01;;;;;;;67.37;31.33;;;3.00;65.80;;;;;;5077680;28;20220;-67
2022/03/20 03:00:50;;;;;;;65.33;32.43;;;2.90;65.90;;;;;;5057598;28;20231;-67
2022/03/20 03:03:45;;;;;;;71.97;32.67;;;2.80;66.20;;;;;;5073980;28;20235;-69
2022/03/20 03:06:34;;;;;;;61.43;30.57;;;2.90;66.30;;;;;;5056496;28;20224;-68
2022/03/20 03:12:30;;;;;;;67.87;32.90;;;2.70;66.80;;;;;;5075191;28;20223;-67
2022/03/20 03:15:19;;;;;;;64.10;33.20;;;2.70;67.10;;;;;;5072574;28;20215;-65
2022/03/20 03:18:08;;;;;;;67.40;32.43;;;2.80;67.30;;;;;;5084756;28;20692;-67
2022/03/20 03:20:57;;;;;;;72.17;34.33;;;2.60;67.70;;;;;;5069708;28;20330;-67
2022/03/20 03:23:46;;;;;;;71.53;34.27;;;2.60;68.10;;;;;;5043833;28;20595;-68
2022/03/20 03:26:35;;;;;;;64.37;33.67;;;2.60;68.20;;;;;;5052707;28;21100;-70
2022/03/20 03:29:25;;;;;;;70.80;33.70;;;2.60;68.30;;;;;;5053530;28;20227;-69
2022/03/20 03:32:18;;;;;;;69.43;32.57;;;2.60;68.00;;;;;;5037618;28;20221;-69
2022/03/20 03:38:14;;;;;;;65.50;31.53;;;2.30;67.70;;;;;;5060073;28;20228;-67
2022/03/20 03:41:04;;;;;;;58.80;29.37;;;2.30;67.60;;;;;;5063408;28;20227;-70
2022/03/20 03:43:53;;;;;;;59.40;29.07;;;2.40;67.50;;;;;;5072619;28;20295;-71
2022/03/20 03:46:43;;;;;;;58.63;29.80;;;2.40;67.30;;;;;;5068867;28;20665;-69
2022/03/20 03:49:33;;;;;;;60.60;30.83;;;2.40;67.40;;;;;;5059680;28;20330;-70
2022/03/20 03:52:22;;;;;;;63.80;30.30;;;2.50;67.50;;;;;;5076568;28;21229;-71
2022/03/20 03:55:11;;;;;;;54.00;28.90;;;2.50;67.40;;;;;;5077487;28;20215;-69
2022/03/20 03:58:00;;;;;;;58.07;29.03;;;2.40;67.50;;;;;;5065606;28;20226;-69
2022/03/20 04:00:48;;;;;;;59.23;29.30;;;2.50;67.70;;;;;;5075743;28;20223;-70
2022/03/20 04:03:38;;;;;;;64.60;30.93;;;2.50;67.90;;;;;;5058130;28;20234;-70
2022/03/20 04:06:28;;;;;;;67.43;30.53;;;2.50;68.20;;;;;;5054561;28;20219;-70
2022/03/20 04:09:16;;;;;;;60.67;30.77;;;2.60;68.40;;;;;;5070663;28;20224;-70
2022/03/20 04:12:06;;;;;;;65.87;31.47;;;2.50;68.70;;;;;;5073918;28;20888;-70
2022/03/20 04:14:57;;;;;;;61.97;30.97;;;2.50;69.30;;;;;;5073018;28;20272;-69
2022/03/20 04:17:46;;;;;;;59.73;30.93;;;2.50;69.60;;;;;;5072676;28;20273;-70
2022/03/20 04:20:37;;;;;;;70.47;32.60;;;2.60;69.60;;;;;;5050786;28;20216;-71
2022/03/20 04:23:45;;;;;;;60.50;31.50;;;2.60;69.30;;;;;;5075090;28;20219;-70
2022/03/20 04:26:35;;;;;;;63.30;31.67;;;2.40;69.60;;;;;;5072252;28;20219;-69
2022/03/20 04:29:24;;;;;;;61.17;31.93;;;2.30;70.30;;;;;;5055588;28;20227;-69
2022/03/20 04:32:13;;;;;;;57.90;30.07;;;2.40;70.80;;;;;;5073707;28;20600;-69
2022/03/20 04:35:02;;;;;;;58.23;31.20;;;2.40;70.60;;;;;;5074374;28;20218;-72
2022/03/20 04:37:53;;;;;;;64.90;31.90;;;2.40;70.20;;;;;;5077549;28;20744;-70
2022/03/20 04:40:41;;;;;;;62.13;31.83;;;2.40;70.20;;;;;;5056959;28;20300;-70
2022/03/20 04:43:30;;;;;;;60.60;30.47;;;2.30;70.40;;;;;;5075032;28;20216;-68
2022/03/20 04:46:20;;;;;;;56.50;29.77;;;2.40;70.00;;;;;;5071430;28;20212;-68
2022/03/20 04:58:47;;;;;;;58.57;27.77;;;2.50;68.20;;;;;;5065889;28;20277;-73
2022/03/20 05:01:37;;;;;;;57.70;28.50;;;2.40;68.00;;;;;;5041956;28;20227;-73
2022/03/20 05:04:26;;;;;;;53.10;27.23;;;2.40;68.50;;;;;;5054339;28;20219;-72
2022/03/20 05:07:15;;;;;;;54.93;27.07;;;2.50;68.10;;;;;;5050671;28;20330;-71
2022/03/20 05:13:22;;;;;;;59.00;27.90;;;2.40;67.90;;;;;;5066326;28;20215;-68
2022/03/20 05:16:10;;;;;;;61.33;29.13;;;2.30;67.90;;;;;;5055119;28;20223;-68
2022/03/20 05:18:59;;;;;;;62.53;30.10;;;2.20;68.20;;;;;;5076838;28;20273;-70
2022/03/20 05:21:48;;;;;;;57.50;28.53;;;2.40;68.50;;;;;;5053571;28;20268;-70
2022/03/20 05:24:37;;;;;;;55.10;28.47;;;2.40;68.40;;;;;;5059536;28;20231;-72
2022/03/20 05:27:26;;;;;;;61.73;30.47;;;2.40;68.40;;;;;;5072360;28;21000;-73
2022/03/20 05:30:16;;;;;;;54.43;28.47;;;2.30;69.40;;;;;;5073820;28;20245;-73
2022/03/20 05:33:08;;;;;;;50.70;26.13;;;2.40;68.40;;;;;;5060378;28;20220;-73
2022/03/20 05:35:57;;;;;;;53.87;28.90;;;2.30;68.60;;;;;;5071605;28;20238;-71
2022/03/20 05:38:46;;;;;;;49.60;24.70;;;2.50;67.60;;;;;;5056156;28;20233;-71
2022/03/20 05:41:51;;;;;;;47.30;25.23;;;2.50;66.80;;;;;;5069566;28;20220;-71
2022/03/20 05:44:40;;;;;;;45.97;23.57;;;2.50;66.10;;;;;;5072665;28;20226;-70
2022/03/20 05:47:32;;;;;;;45.97;22.90;;;2.60;65.80;;;;;;5079402;28;20215;-70
2022/03/20 05:50:23;;;;;;;48.30;24.37;;;2.40;65.70;;;;;;5061124;28;20717;-70
2022/03/20 05:53:12;;;;;;;46.10;25.07;;;2.50;65.70;;;;;;5048639;28;20235;-71
2022/03/20 05:59:06;;;;;;;45.40;23.60;;;2.50;65.60;;;;;;5062055;28;20217;-71
2022/03/20 06:01:56;;;;;;;46.63;23.47;;;2.60;65.70;;;;;;5075325;28;20246;-71
2022/03/20 06:04:47;;;;;;;46.43;22.67;;;2.80;65.60;;;;;;5046578;28;20224;-69
2022/03/20 06:07:40;;;;;;;47.80;23.97;;;2.80;65.10;;;;;;5072606;28;20240;-69
2022/03/20 06:10:29;;;;;;;47.20;22.80;;;2.90;64.70;;;;;;5073020;28;20215;-67
2022/03/20 06:13:18;;;;;;;49.10;24.53;;;2.90;64.70;;;;;;5074765;28;20222;-68
2022/03/20 06:16:08;;;;;;;44.53;23.73;;;3.00;64.70;;;;;;5057272;28;20220;-65
2022/03/20 06:18:58;;;;;;;41.57;22.63;;;3.10;64.70;;;;;;5078527;28;20307;-66
2022/03/20 06:21:49;;;;;;;47.27;24.37;;;3.20;64.30;;;;;;5079394;28;20243;-66
2022/03/20 06:24:37;;;;;;;42.17;21.77;;;3.30;64.00;;;;;;5056593;28;20224;-68
2022/03/20 06:27:26;;;;;;;41.87;21.90;;;3.40;63.40;;;;;;5078158;28;20696;-66
2022/03/20 06:30:39;;;;;;;38.03;20.50;;;3.50;63.10;;;;;;5078371;28;20911;-67
2022/03/20 06:33:28;;;;;;;40.43;21.47;;;3.40;62.60;;;;;;5079495;28;20361;-67
2022/03/20 06:36:16;;;;;;;40.40;21.03;;;3.50;62.50;;;;;;5063161;28;20848;-66
2022/03/20 06:39:06;;;;;;;39.80;20.23;;;3.60;62.30;;;;;;5063624;28;20231;-66
2022/03/20 06:41:56;;;;;;;38.57;18.63;;;3.60;61.80;;;;;;5059351;28;20246;-68
2022/03/20 06:44:44;;;;;;;40.13;19.17;;;3.70;61.60;;;;;;5078538;28;20314;-68
2022/03/20 06:47:33;;;;;;;34.97;20.40;;;3.80;61.70;;;;;;5044898;28;21431;-69
2022/03/20 06:50:22;;;;;;;36.60;19.83;;;3.90;61.50;;;;;;5079615;28;20884;-68
2022/03/20 06:53:11;;;;;;;39.73;20.40;;;4.00;61.20;;;;;;5078360;28;20304;-68
2022/03/20 06:56:02;;;;;;;34.80;19.63;;;4.00;61.20;;;;;;5047132;28;20734;-67
2022/03/20 06:58:50;;;;;;;34.53;18.90;;;4.20;61.30;;;;;;5049742;28;20229;-69
2022/03/20 07:01:39;;;;;;;31.77;17.70;;;4.30;60.80;;;;;;5052807;28;20655;-69
2022/03/20 07:04:28;;;;;;;33.67;17.93;;;4.20;60.30;;;;;;5055604;28;20333;-69
2022/03/20 07:07:16;;;;;;;31.67;17.57;;;4.30;59.90;;;;;;5070227;28;20594;-69
2022/03/20 07:10:07;;;;;;;29.67;16.10;;;4.40;59.70;;;;;;5061063;28;20221;-65
2022/03/20 07:16:00;;;;;;;31.27;17.73;;;4.60;59.10;;;;;;5075028;28;20228;-66
2022/03/20 07:18:50;;;;;;;35.07;17.47;;;4.70;59.10;;;;;;5072905;28;20694;-67
2022/03/20 07:21:38;;;;;;;35.77;17.53;;;4.90;59.70;;;;;;5077056;28;20238;-69
2022/03/20 07:24:27;;;;;;;33.33;18.73;;;4.80;59.00;;;;;;5075826;28;20219;-66
2022/03/20 07:30:23;;;;;;;34.33;18.50;;;4.80;59.60;;;;;;5055680;28;20798;-65
2022/03/20 07:33:12;;;;;;;30.70;17.43;;;5.00;59.50;;;;;;5075721;28;20245;-65
2022/03/20 07:36:07;;;;;;;33.67;18.03;;;5.10;58.90;;;;;;5071703;28;20225;-66
2022/03/20 07:38:57;;;;;;;30.37;17.33;;;5.20;58.90;;;;;;5059339;28;20217;-67
2022/03/20 07:41:46;;;;;;;33.17;17.43;;;5.30;58.60;;;;;;5058604;28;20225;-65
2022/03/20 07:44:44;;;;;;;35.60;18.23;;;5.30;58.40;;;;;;5033638;28;20232;-65
2022/03/20 07:47:35;;;;;;;30.50;16.57;;;5.50;58.60;;;;;;5033547;28;20229;-66
2022/03/20 07:50:24;;;;;;;33.13;17.43;;;5.60;58.20;;;;;;5029609;28;21460;-66
2022/03/20 07:53:12;;;;;;;28.40;16.33;;;5.70;57.70;;;;;;5030094;28;20320;-65
2022/03/20 07:56:01;;;;;;;31.33;16.70;;;5.90;57.60;;;;;;5031783;28;20232;-65
2022/03/20 07:58:50;;;;;;;28.63;15.03;;;6.10;57.10;;;;;;5049672;28;20264;-65
2022/03/20 08:01:39;;;;;;;25.90;14.63;;;6.50;55.80;;;;;;5030767;28;20229;-66
2022/03/20 08:04:31;;;;;;;28.37;15.80;;;9.90;54.50;;;;;;5043430;28;20248;-64
2022/03/20 08:07:20;;;;;;;24.77;15.20;;;12.80;49.00;;;;;;5037809;28;20219;-65
2022/03/20 08:10:11;;;;;;;27.20;16.07;;;14.30;45.00;;;;;;5028469;28;20784;-67
2022/03/20 08:13:02;;;;;;;30.50;16.30;;;14.90;42.80;;;;;;5029548;28;20227;-65
2022/03/20 08:15:53;;;;;;;32.72;18.42;;;15.10;42.60;;;;;;5029736;28;20225;-65
2022/03/20 08:18:43;;;;;;;28.38;16.48;;;15.50;41.60;;;;;;5030176;28;20232;-65
2022/03/20 08:21:34;;;;;;;27.65;15.57;;;16.40;40.90;;;;;;5030488;28;20738;-68
2022/03/20 08:24:23;;;;;;;30.55;17.58;;;17.20;38.80;;;;;;5033308;28;20228;-68
2022/03/20 08:27:12;;;;;;;28.02;17.55;;;17.60;38.20;;;;;;5034337;28;20634;-68
2022/03/20 08:30:01;;;;;;;28.70;17.70;;;17.10;37.80;;;;;;5031995;28;20224;-66
2022/03/20 08:32:52;;;;;;;27.75;17.67;;;17.60;37.10;;;;;;5040925;28;20877;-66
2022/03/20 08:35:41;;;;;;;25.15;15.60;;;19.10;36.90;;;;;;5037933;28;20738;-66
2022/03/20 08:38:31;;;;;;;25.50;16.42;;;19.00;35.40;;;;;;5040611;28;20220;-67
2022/03/20 08:41:21;;;;;;;23.63;15.35;;;18.70;35.80;;;;;;5025877;28;20958;-68
2022/03/20 08:44:10;;;;;;;24.23;16.05;;;19.30;35.50;;;;;;5054102;28;20216;-67
2022/03/20 08:46:59;;;;;;;26.10;15.82;;;19.60;34.40;;;;;;5050546;28;20220;-68
2022/03/20 08:49:50;;;;;;;25.30;15.48;;;20.20;34.60;;;;;;5053576;28;20285;-68
2022/03/20 08:52:39;;;;;;;22.73;15.77;;;21.00;33.40;;;;;;5042126;28;20685;-65
2022/03/20 08:55:33;;;;;;;25.20;16.08;;;21.50;33.00;;;;;;5051774;28;20255;-67
2022/03/20 08:58:22;;;;;;;22.75;15.52;;;22.20;31.90;;;;;;5054282;28;20272;-67
2022/03/20 09:01:11;;;;;;;25.48;15.63;;;22.30;31.50;;;;;;5048275;28;20912;-67
2022/03/20 09:04:01;;;;;;;21.25;14.27;;;22.70;31.30;;;;;;5068028;28;20219;-67
2022/03/20 09:06:50;;;;;;;24.05;15.73;;;21.60;30.60;;;;;;5052289;28;20225;-74
2022/03/20 09:09:38;;;;;;;22.95;15.45;;;21.60;31.40;;;;;;5065302;28;20228;-66
2022/03/20 09:12:29;;;;;;;23.70;15.73;;;22.10;31.10;;;;;;5049665;28;20212;-68
2022/03/20 09:15:18;;;;;;;20.92;13.93;;;21.70;31.70;;;;;;5055216;28;20296;-68
2022/03/20 09:21:13;;;;;;;20.15;13.13;;;17.50;31.10;;;;;;5055943;28;20231;-65
2022/03/20 09:24:03;;;;;;;19.73;11.90;;;14.30;35.40;;;;;;5052958;28;20281;-66
2022/03/20 09:26:52;;;;;;;19.08;12.15;;;13.30;37.30;;;;;;5056517;28;20234;-67
2022/03/20 09:29:42;;;;;;;18.35;11.32;;;12.70;38.80;;;;;;5056792;28;20315;-66
2022/03/20 09:32:30;;;;;;;17.17;11.82;;;11.20;39.70;;;;;;5054425;28;20224;-67
2022/03/20 09:35:19;;;;;;;20.67;12.38;;;11.00;41.40;;;;;;5055035;28;20228;-66
2022/03/20 09:38:09;;;;;;;15.15;10.43;;;11.10;42.00;;;;;;5051739;28;20227;-66
2022/03/20 09:40:59;;;;;;;17.92;10.65;;;11.20;42.00;;;;;;5040661;28;20243;-68
2022/03/20 09:43:48;;;;;;;18.92;10.90;;;11.20;41.60;;;;;;5045406;28;20228;-67
2022/03/20 09:46:38;;;;;;;14.82;10.27;;;11.10;41.60;;;;;;5045246;28;20229;-68
2022/03/20 09:49:30;;;;;;;17.67;11.00;;;11.20;41.40;;;;;;5048202;28;20243;-68
2022/03/20 09:52:18;;;;;;;19.92;10.52;;;11.10;41.10;;;;;;5059137;28;20215;-69
2022/03/20 09:55:10;;;;;;;13.57;9.38;;;11.00;41.50;;;;;;5041144;28;20876;-67
2022/03/20 09:58:00;;;;;;;19.23;10.52;;;10.90;41.60;;;;;;5039818;28;20216;-70
2022/03/20 10:00:49;;;;;;;17.35;9.50;;;10.60;41.70;;;;;;5071288;28;20642;-68
2022/03/20 10:03:39;;;;;;;14.68;9.68;;;10.60;41.70;;;;;;5059023;28;20224;-69
2022/03/20 10:06:28;;;;;;;16.38;9.25;;;10.70;41.70;;;;;;5059341;28;20663;-70
2022/03/20 10:09:17;;;;;;;13.40;8.88;;;10.60;41.50;;;;;;5045430;28;20236;-70
2022/03/20 10:12:06;;;;;;;13.48;9.00;;;10.60;41.50;;;;;;5044582;28;20254;-68
2022/03/20 10:14:57;;;;;;;16.17;9.40;;;10.40;41.90;;;;;;5060707;28;20393;-68
2022/03/20 10:18:10;;;;;;;13.82;8.85;;;10.50;41.60;;;;;;5058818;28;20416;-69
2022/03/20 10:21:00;;;;;;;14.33;9.53;;;10.40;41.70;;;;;;5044525;28;20225;-69
2022/03/20 10:23:49;;;;;;;12.67;8.33;;;10.30;42.10;;;;;;5061125;28;20331;-70
2022/03/20 10:26:38;;;;;;;12.98;9.07;;;10.40;42.10;;;;;;5055902;28;20219;-67
2022/03/20 10:29:28;;;;;;;17.70;8.63;;;10.50;41.80;;;;;;5057598;28;20255;-70
2022/03/20 10:32:20;;;;;;;16.20;9.15;;;10.60;41.70;;;;;;5075546;28;20228;-68
2022/03/20 10:35:11;;;;;;;12.20;8.97;;;10.60;41.60;;;;;;5048509;28;20591;-71
2022/03/20 10:38:05;;;;;;;15.70;9.83;;;10.50;41.70;;;;;;5032799;28;20239;-70
2022/03/20 10:40:53;;;;;;;14.10;8.93;;;10.60;41.70;;;;;;5057911;28;20216;-71
2022/03/20 10:43:42;;;;;;;11.43;8.30;;;10.50;41.50;;;;;;5040882;28;20240;-70
2022/03/20 10:46:32;;;;;;;13.60;9.33;;;10.40;41.60;;;;;;5040665;28;20224;-69
2022/03/20 10:49:22;;;;;;;13.80;8.83;;;10.50;41.90;;;;;;5036367;28;20228;-67
2022/03/20 10:52:19;;;;;;;13.00;9.40;;;10.50;41.80;;;;;;5023193;28;20224;-68
2022/03/20 10:55:12;;;;;;;14.40;9.33;;;10.50;41.80;;;;;;5035516;28;20224;-69
2022/03/20 10:58:18;;;;;;;14.68;9.52;;;10.50;42.20;;;;;;5022749;28;20221;-70
2022/03/20 11:01:08;;;;;;;13.77;8.53;;;10.60;42.60;;;;;;5041029;28;20220;-72
2022/03/20 11:03:58;;;;;;;14.73;9.13;;;10.40;42.40;;;;;;5038966;28;20304;-72
2022/03/20 11:06:49;;;;;;;15.07;9.68;;;10.30;42.40;;;;;;5036659;28;20220;-71
2022/03/20 11:09:38;;;;;;;13.80;9.30;;;10.50;42.70;;;;;;5022509;28;21283;-68
2022/03/20 11:12:32;;;;;;;14.75;9.05;;;10.70;42.60;;;;;;5022638;28;20224;-70
2022/03/20 11:15:22;;;;;;;16.27;9.15;;;10.70;42.50;;;;;;5037645;28;20220;-65
2022/03/20 11:18:15;;;;;;;13.60;9.20;;;10.70;42.30;;;;;;5023588;28;20263;-64
2022/03/20 11:21:06;;;;;;;16.13;9.60;;;10.60;42.30;;;;;;5021495;28;20768;-64
2022/03/20 11:23:55;;;;;;;14.68;8.93;;;10.30;42.60;;;;;;5024353;28;20218;-65
2022/03/20 11:26:45;;;;;;;14.50;9.33;;;10.30;43.00;;;;;;5023201;28;20239;-65
2022/03/20 11:29:43;;;;;;;14.47;9.20;;;10.40;43.10;;;;;;5038211;28;20831;-65
2022/03/20 11:32:33;;;;;;;14.40;9.23;;;10.20;43.20;;;;;;5031996;28;20225;-65
2022/03/20 11:35:25;;;;;;;15.43;9.50;;;10.20;43.20;;;;;;5026683;28;20244;-65
2022/03/20 11:38:19;;;;;;;13.38;8.82;;;10.30;43.30;;;;;;5035587;28;20221;-65
2022/03/20 11:41:13;;;;;;;15.73;9.60;;;10.20;43.50;;;;;;5037461;28;20308;-64
2022/03/20 11:44:16;;;;;;;14.80;9.17;;;10.20;43.50;;;;;;5040704;28;20231;-64
2022/03/20 11:47:27;;;;;;;11.07;8.33;;;10.10;43.50;;;;;;5058760;28;20843;-63
2022/03/20 11:50:21;;;;;;;16.77;9.50;;;10.40;43.60;;;;;;5045653;28;20286;-65
2022/03/20 11:53:11;;;;;;;14.03;9.17;;;10.40;43.60;;;;;;5059784;28;20232;-63
2022/03/20 11:56:01;;;;;;;13.43;9.03;;;10.50;43.20;;;;;;5046884;28;20247;-64
2022/03/20 11:58:50;;;;;;;14.13;8.70;;;10.50;43.40;;;;;;5054792;28;20234;-65
2022/03/20 12:02:01;;;;;;;15.15;9.23;;;10.50;43.70;;;;;;5043879;28;20220;-64
2022/03/20 12:05:04;;;;;;;16.52;9.07;;;10.50;43.90;;;;;;5042139;28;20225;-65
2022/03/20 12:07:59;;;;;;;13.73;8.90;;;10.50;43.70;;;;;;5055447;28;20683;-66
2022/03/20 12:10:57;;;;;;;16.35;9.63;;;10.50;43.90;;;;;;5043316;28;20224;-64
2022/03/20 12:13:51;;;;;;;11.48;8.40;;;10.60;43.90;;;;;;5058674;28;20232;-64
2022/03/20 12:16:58;;;;;;;13.38;8.75;;;10.60;43.70;;;;;;5046170;28;20219;-65
2022/03/20 12:19:49;;;;;;;14.70;8.57;;;10.60;43.90;;;;;;5044116;28;20220;-64
2022/03/20 12:22:39;;;;;;;11.85;8.48;;;10.70;43.50;;;;;;5042777;28;20240;-65
2022/03/20 12:25:43;;;;;;;12.88;8.82;;;10.60;43.40;;;;;;5053434;28;20235;-65
2022/03/20 12:28:33;;;;;;;14.32;8.45;;;10.50;43.70;;;;;;5044609;28;20216;-65
2022/03/20 12:31:27;;;;;;;13.07;8.52;;;10.50;43.80;;;;;;5044720;28;20224;-66
2022/03/20 12:34:20;;;;;;;13.43;8.82;;;10.50;44.00;;;;;;5042208;28;20274;-66
2022/03/20 12:37:37;;;;;;;15.38;8.02;;;10.60;43.90;;;;;;5058418;28;20215;-64
2022/03/20 12:40:30;;;;;;;12.07;8.18;;;10.60;43.70;;;;;;4946441;28;20251;-64
2022/03/20 12:43:33;;;;;;;11.90;7.97;;;10.60;43.50;;;;;;4984401;28;20233;-64
2022/03/20 12:46:22;;;;;;;13.63;8.35;;;10.50;43.40;;;;;;5030081;28;20239;-66
2022/03/20 12:49:21;;;;;;;14.55;8.18;;;10.50;43.50;;;;;;5029008;28;20243;-64
2022/03/20 12:52:11;;;;;;;14.13;8.77;;;10.30;43.60;;;;;;5037650;28;20709;-64
2022/03/20 12:55:02;;;;;;;13.40;8.23;;;10.40;43.70;;;;;;5021580;28;20235;-64
2022/03/20 12:57:52;;;;;;;13.50;7.65;;;10.40;43.80;;;;;;5021504;28;20244;-64
2022/03/20 13:00:41;;;;;;;12.57;8.52;;;10.40;43.70;;;;;;5038944;28;20906;-65
2022/03/20 13:03:32;;;;;;;12.93;7.82;;;10.50;43.90;;;;;;5037462;28;20292;-64
2022/03/20 13:06:28;;;;;;;14.13;8.43;;;10.50;43.90;;;;;;5037140;28;20261;-63
2022/03/20 13:09:19;;;;;;;11.07;7.93;;;10.40;43.90;;;;;;5038498;28;20252;-65
2022/03/20 13:12:09;;;;;;;12.35;8.07;;;10.50;43.90;;;;;;5027033;28;20359;-65
2022/03/20 13:14:59;;;;;;;13.20;7.97;;;10.40;43.90;;;;;;5036767;28;20683;-64
2022/03/20 13:17:49;;;;;;;11.70;6.90;;;10.30;43.70;;;;;;5033144;28;20297;-65
2022/03/20 13:20:40;;;;;;;12.43;7.30;;;10.40;43.80;;;;;;5027477;28;20714;-65
2022/03/20 13:23:30;;;;;;;10.20;6.45;;;10.50;43.20;;;;;;5020885;28;20667;-64
2022/03/20 13:26:22;;;;;;;10.15;6.72;;;10.60;42.80;;;;;;5043846;28;20231;-63
2022/03/20 13:29:23;;;;;;;10.88;6.78;;;10.60;42.50;;;;;;5041938;28;20224;-65
2022/03/20 13:32:13;;;;;;;14.65;7.15;;;10.60;42.90;;;;;;5025860;28;20714;-64
2022/03/20 13:35:02;;;;;;;14.50;7.77;;;10.70;42.80;;;;;;5038485;28;20243;-65
2022/03/20 13:37:57;;;;;;;12.35;6.95;;;10.60;43.00;;;;;;5036167;28;20256;-64
2022/03/20 13:40:47;;;;;;;9.05;6.60;;;10.60;43.10;;;;;;5040179;28;20275;-64
2022/03/20 13:43:36;;;;;;;11.63;7.10;;;10.60;43.10;;;;;;5038492;28;20239;-65
2022/03/20 13:46:27;;;;;;;10.88;6.90;;;10.50;43.20;;;;;;5044543;28;21017;-65
2022/03/20 13:49:18;;;;;;;11.40;7.53;;;10.40;43.30;;;;;;5047724;28;20231;-63
2022/03/20 13:52:09;;;;;;;14.07;7.30;;;10.40;43.70;;;;;;5074820;28;20850;-65
2022/03/20 13:55:08;;;;;;;10.23;7.18;;;10.50;43.70;;;;;;5080321;28;20321;-64
2022/03/20 13:57:59;;;;;;;11.43;6.82;;;10.60;43.60;;;;;;5063116;28;20223;-65
2022/03/20 14:00:49;;;;;;;11.65;6.85;;;10.60;43.50;;;;;;5051819;28;20374;-65
2022/03/20 14:03:40;;;;;;;11.23;6.85;;;10.70;43.70;;;;;;5061451;28;20220;-64
2022/03/20 14:06:38;;;;;;;10.48;7.03;;;10.70;43.40;;;;;;5034408;28;20300;-65
2022/03/20 14:09:35;;;;;;;12.20;7.38;;;10.70;43.40;;;;;;5063387;28;20299;-64
2022/03/20 14:12:28;;;;;;;11.38;7.65;;;10.70;43.30;;;;;;5065265;28;20352;-63
2022/03/20 14:15:18;;;;;;;12.15;7.40;;;10.70;43.40;;;;;;5066736;28;20317;-64
2022/03/20 14:18:12;;;;;;;13.73;7.30;;;10.70;43.50;;;;;;5059502;28;20693;-64
2022/03/20 14:21:15;;;;;;;12.57;8.00;;;10.60;43.80;;;;;;5063722;28;20232;-63
2022/03/20 14:24:07;;;;;;;14.13;8.32;;;10.70;44.00;;;;;;5073358;28;20231;-65
2022/03/20 14:27:00;;;;;;;18.63;7.90;;;10.70;44.10;;;;;;5063858;28;20224;-64
2022/03/20 14:39:28;;;;;;;12.48;8.07;;;10.70;44.80;;;;;;5055009;28;20234;-64
2022/03/20 14:42:26;;;;;;;12.43;7.85;;;10.60;44.40;;;;;;5066904;28;20448;-64
2022/03/20 14:45:16;;;;;;;11.57;8.05;;;10.70;44.70;;;;;;5063820;28;20319;-64
2022/03/20 14:48:05;;;;;;;13.93;8.07;;;10.60;45.00;;;;;;5074952;28;20306;-65
2022/03/20 14:50:53;;;;;;;13.93;8.55;;;10.60;44.70;;;;;;5066156;28;20234;-65
2022/03/20 14:53:42;;;;;;;12.88;8.40;;;10.60;44.90;;;;;;5074079;28;21136;-64
2022/03/20 14:56:33;;;;;;;13.30;8.73;;;10.60;44.90;;;;;;5057839;28;20739;-64
2022/03/20 14:59:21;;;;;;;13.83;8.50;;;10.50;45.00;;;;;;5051782;28;20867;-61
2022/03/20 15:02:11;;;;;;;14.00;8.23;;;10.50;45.10;;;;;;5071090;28;20239;-67
2022/03/20 15:05:00;;;;;;;15.18;8.50;;;10.50;45.30;;;;;;5079423;28;20590;-73
2022/03/20 15:14:01;;;;;;;12.17;7.90;;;10.60;45.10;;;;;;5088028;28;20226;-73
2022/03/20 15:16:50;;;;;;;12.53;8.23;;;10.60;45.00;;;;;;5097178;28;20353;-72
2022/03/20 15:19:41;;;;;;;11.53;7.97;;;10.50;45.00;;;;;;5084515;28;20230;-71
2022/03/20 15:22:29;;;;;;;15.38;8.40;;;10.60;45.20;;;;;;5080924;28;20223;-71
2022/03/20 15:25:19;;;;;;;15.03;8.27;;;10.50;45.10;;;;;;5079825;28;20713;-71